sensor_id;sensor_type;location;lat;lon;timestamp;P1;durP1;ratioP1;P2;durP2;ratioP2
25932;SDS011;13731;51.166;4.474;2023-02-22T00:01:30;129.70;;;115.78;;
25932;SDS011;13731;51.166;4.474;2023-02-22T00:04:07;141.68;;;110.63;;
25932;SDS011;13731;51.166;4.474;2023-02-22T00:06:35;125.05;;;111.57;;
25932;SDS011;13731;51.166;4.474;2023-02-22T00:09:00;170.32;;;110.70;;
25932;SDS011;13731;51.166;4.474;2023-02-22T00:11:26;159.35;;;111.90;;
25932;SDS011;13731;51.166;4.474;2023-02-22T00:13:52;147.25;;;112.57;;
25932;SDS011;13731;51.166;4.474;2023-02-22T00:16:21;142.05;;;109.18;;
25932;SDS011;13731;51.166;4.474;2023-02-22T00:18:48;139.60;;;116.63;;
25932;SDS011;13731;51.166;4.474;2023-02-22T00:21:15;128.38;;;111.38;;
25932;SDS011;13731;51.166;4.474;2023-02-22T00:23:42;157.63;;;113.28;;
25932;SDS011;13731;51.166;4.474;2023-02-22T00:26:13;141.18;;;113.50;;
25932;SDS011;13731;51.166;4.474;2023-02-22T00:28:49;152.40;;;115.78;;
25932;SDS011;13731;51.166;4.474;2023-02-22T00:31:16;148.32;;;107.55;;
25932;SDS011;13731;51.166;4.474;2023-02-22T00:33:43;142.98;;;110.05;;
25932;SDS011;13731;51.166;4.474;2023-02-22T00:36:10;139.23;;;105.60;;
25932;SDS011;13731;51.166;4.474;2023-02-22T00:38:37;137.65;;;114.38;;
25932;SDS011;13731;51.166;4.474;2023-02-22T00:41:04;123.18;;;110.22;;
25932;SDS011;13731;51.166;4.474;2023-02-22T00:43:31;153.65;;;110.88;;
25932;SDS011;13731;51.166;4.474;2023-02-22T00:45:58;148.13;;;114.63;;
25932;SDS011;13731;51.166;4.474;2023-02-22T00:48:24;141.60;;;111.20;;
25932;SDS011;13731;51.166;4.474;2023-02-22T00:50:50;152.75;;;116.18;;
25932;SDS011;13731;51.166;4.474;2023-02-22T00:53:19;178.60;;;114.40;;
25932;SDS011;13731;51.166;4.474;2023-02-22T00:55:46;179.70;;;118.32;;
25932;SDS011;13731;51.166;4.474;2023-02-22T00:58:12;146.95;;;104.85;;
25932;SDS011;13731;51.166;4.474;2023-02-22T01:00:39;221.77;;;118.65;;
25932;SDS011;13731;51.166;4.474;2023-02-22T01:03:08;139.82;;;108.97;;
25932;SDS011;13731;51.166;4.474;2023-02-22T01:08:03;175.15;;;120.65;;
25932;SDS011;13731;51.166;4.474;2023-02-22T01:10:34;155.65;;;118.43;;
25932;SDS011;13731;51.166;4.474;2023-02-22T01:13:00;120.88;;;105.45;;
25932;SDS011;13731;51.166;4.474;2023-02-22T01:15:33;119.20;;;106.20;;
25932;SDS011;13731;51.166;4.474;2023-02-22T01:18:00;120.70;;;108.25;;
25932;SDS011;13731;51.166;4.474;2023-02-22T01:20:27;183.68;;;113.70;;
25932;SDS011;13731;51.166;4.474;2023-02-22T01:22:54;166.52;;;107.75;;
25932;SDS011;13731;51.166;4.474;2023-02-22T01:25:26;151.23;;;105.45;;
25932;SDS011;13731;51.166;4.474;2023-02-22T01:27:55;159.52;;;106.53;;
25932;SDS011;13731;51.166;4.474;2023-02-22T01:30:23;132.27;;;102.68;;
25932;SDS011;13731;51.166;4.474;2023-02-22T01:32:51;176.82;;;111.18;;
25932;SDS011;13731;51.166;4.474;2023-02-22T01:35:20;161.80;;;106.47;;
25932;SDS011;13731;51.166;4.474;2023-02-22T01:37:48;118.15;;;102.28;;
25932;SDS011;13731;51.166;4.474;2023-02-22T01:40:18;143.82;;;113.40;;
25932;SDS011;13731;51.166;4.474;2023-02-22T01:42:46;137.70;;;110.10;;
25932;SDS011;13731;51.166;4.474;2023-02-22T01:47:55;119.05;;;107.07;;
25932;SDS011;13731;51.166;4.474;2023-02-22T01:50:24;162.50;;;108.90;;
25932;SDS011;13731;51.166;4.474;2023-02-22T01:52:51;146.55;;;109.35;;
25932;SDS011;13731;51.166;4.474;2023-02-22T01:55:17;152.00;;;115.65;;
25932;SDS011;13731;51.166;4.474;2023-02-22T01:57:44;137.65;;;109.15;;
25932;SDS011;13731;51.166;4.474;2023-02-22T02:00:13;110.93;;;100.78;;
25932;SDS011;13731;51.166;4.474;2023-02-22T02:02:44;131.40;;;105.55;;
25932;SDS011;13731;51.166;4.474;2023-02-22T02:05:24;130.52;;;99.53;;
25932;SDS011;13731;51.166;4.474;2023-02-22T02:07:52;139.50;;;98.38;;
25932;SDS011;13731;51.166;4.474;2023-02-22T02:10:19;145.00;;;103.97;;
25932;SDS011;13731;51.166;4.474;2023-02-22T02:12:46;141.38;;;99.35;;
25932;SDS011;13731;51.166;4.474;2023-02-22T02:15:23;129.50;;;97.22;;
25932;SDS011;13731;51.166;4.474;2023-02-22T02:17:54;168.85;;;104.88;;
25932;SDS011;13731;51.166;4.474;2023-02-22T02:42:33;134.13;;;87.68;;
25932;SDS011;13731;51.166;4.474;2023-02-22T02:45:23;113.57;;;89.97;;
25932;SDS011;13731;51.166;4.474;2023-02-22T02:47:59;100.35;;;87.38;;
25932;SDS011;13731;51.166;4.474;2023-02-22T02:50:32;122.75;;;104.75;;
25932;SDS011;13731;51.166;4.474;2023-02-22T02:53:11;115.05;;;102.53;;
25932;SDS011;13731;51.166;4.474;2023-02-22T02:55:41;109.88;;;99.93;;
25932;SDS011;13731;51.166;4.474;2023-02-22T02:58:10;110.05;;;99.15;;
25932;SDS011;13731;51.166;4.474;2023-02-22T03:00:43;113.50;;;101.80;;
25932;SDS011;13731;51.166;4.474;2023-02-22T03:11:27;140.45;;;102.13;;
25932;SDS011;13731;51.166;4.474;2023-02-22T03:22:10;99.43;;;90.72;;
25932;SDS011;13731;51.166;4.474;2023-02-22T03:24:38;110.60;;;98.80;;
25932;SDS011;13731;51.166;4.474;2023-02-22T03:27:26;111.38;;;100.47;;
25932;SDS011;13731;51.166;4.474;2023-02-22T03:30:02;107.43;;;95.80;;
25932;SDS011;13731;51.166;4.474;2023-02-22T03:32:32;105.95;;;90.30;;
25932;SDS011;13731;51.166;4.474;2023-02-22T03:35:11;112.15;;;98.68;;
25932;SDS011;13731;51.166;4.474;2023-02-22T03:37:58;116.47;;;100.00;;
25932;SDS011;13731;51.166;4.474;2023-02-22T03:40:30;102.00;;;91.32;;
25932;SDS011;13731;51.166;4.474;2023-02-22T03:43:04;109.93;;;92.15;;
25932;SDS011;13731;51.166;4.474;2023-02-22T03:45:37;111.78;;;92.70;;
25932;SDS011;13731;51.166;4.474;2023-02-22T03:50:52;141.05;;;92.50;;
25932;SDS011;13731;51.166;4.474;2023-02-22T03:53:19;115.13;;;92.75;;
25932;SDS011;13731;51.166;4.474;2023-02-22T03:55:48;108.90;;;93.13;;
25932;SDS011;13731;51.166;4.474;2023-02-22T03:58:16;100.78;;;90.88;;
25932;SDS011;13731;51.166;4.474;2023-02-22T04:00:44;100.40;;;89.50;;
25932;SDS011;13731;51.166;4.474;2023-02-22T04:03:10;118.22;;;98.13;;
25932;SDS011;13731;51.166;4.474;2023-02-22T04:05:37;102.53;;;91.95;;
25932;SDS011;13731;51.166;4.474;2023-02-22T04:08:03;96.18;;;86.28;;
25932;SDS011;13731;51.166;4.474;2023-02-22T04:10:31;103.53;;;92.18;;
25932;SDS011;13731;51.166;4.474;2023-02-22T04:12:58;104.13;;;94.22;;
25932;SDS011;13731;51.166;4.474;2023-02-22T04:15:24;103.80;;;92.55;;
25932;SDS011;13731;51.166;4.474;2023-02-22T04:17:54;105.50;;;94.90;;
25932;SDS011;13731;51.166;4.474;2023-02-22T04:20:21;102.20;;;92.72;;
25932;SDS011;13731;51.166;4.474;2023-02-22T04:23:03;104.10;;;93.80;;
25932;SDS011;13731;51.166;4.474;2023-02-22T04:25:29;106.13;;;95.88;;
25932;SDS011;13731;51.166;4.474;2023-02-22T04:27:56;112.38;;;99.25;;
25932;SDS011;13731;51.166;4.474;2023-02-22T04:30:36;110.43;;;99.47;;
25932;SDS011;13731;51.166;4.474;2023-02-22T04:33:05;114.40;;;103.30;;
25932;SDS011;13731;51.166;4.474;2023-02-22T04:35:31;121.03;;;107.93;;
25932;SDS011;13731;51.166;4.474;2023-02-22T04:37:57;126.65;;;115.80;;
25932;SDS011;13731;51.166;4.474;2023-02-22T04:40:23;126.53;;;113.20;;
25932;SDS011;13731;51.166;4.474;2023-02-22T04:42:49;181.23;;;121.95;;
25932;SDS011;13731;51.166;4.474;2023-02-22T04:45:15;134.82;;;120.88;;
25932;SDS011;13731;51.166;4.474;2023-02-22T04:47:41;135.10;;;123.90;;
25932;SDS011;13731;51.166;4.474;2023-02-22T04:50:07;135.95;;;123.68;;
25932;SDS011;13731;51.166;4.474;2023-02-22T04:52:34;135.95;;;123.60;;
25932;SDS011;13731;51.166;4.474;2023-02-22T04:55:00;146.48;;;130.52;;
25932;SDS011;13731;51.166;4.474;2023-02-22T04:57:26;141.25;;;128.00;;
25932;SDS011;13731;51.166;4.474;2023-02-22T04:59:52;173.57;;;124.88;;
25932;SDS011;13731;51.166;4.474;2023-02-22T05:02:20;141.50;;;128.23;;
25932;SDS011;13731;51.166;4.474;2023-02-22T05:04:46;136.10;;;122.63;;
25932;SDS011;13731;51.166;4.474;2023-02-22T05:07:12;127.07;;;116.68;;
25932;SDS011;13731;51.166;4.474;2023-02-22T05:09:38;131.23;;;119.20;;
25932;SDS011;13731;51.166;4.474;2023-02-22T05:12:04;131.48;;;120.20;;
25932;SDS011;13731;51.166;4.474;2023-02-22T05:14:30;130.73;;;118.75;;
25932;SDS011;13731;51.166;4.474;2023-02-22T05:16:56;132.00;;;119.15;;
25932;SDS011;13731;51.166;4.474;2023-02-22T05:19:22;132.93;;;121.40;;
25932;SDS011;13731;51.166;4.474;2023-02-22T05:21:48;129.68;;;119.68;;
25932;SDS011;13731;51.166;4.474;2023-02-22T05:24:14;128.48;;;117.15;;
25932;SDS011;13731;51.166;4.474;2023-02-22T05:26:44;130.73;;;119.53;;
25932;SDS011;13731;51.166;4.474;2023-02-22T05:29:11;124.32;;;114.85;;
25932;SDS011;13731;51.166;4.474;2023-02-22T05:31:37;128.25;;;118.50;;
25932;SDS011;13731;51.166;4.474;2023-02-22T05:34:03;129.20;;;119.65;;
25932;SDS011;13731;51.166;4.474;2023-02-22T05:36:29;129.43;;;119.88;;
25932;SDS011;13731;51.166;4.474;2023-02-22T05:38:55;126.82;;;117.07;;
25932;SDS011;13731;51.166;4.474;2023-02-22T05:41:21;131.05;;;121.03;;
25932;SDS011;13731;51.166;4.474;2023-02-22T05:43:47;128.43;;;119.13;;
25932;SDS011;13731;51.166;4.474;2023-02-22T05:46:13;124.82;;;115.63;;
25932;SDS011;13731;51.166;4.474;2023-02-22T05:48:39;131.48;;;121.85;;
25932;SDS011;13731;51.166;4.474;2023-02-22T05:51:05;119.00;;;110.25;;
25932;SDS011;13731;51.166;4.474;2023-02-22T05:53:31;126.60;;;117.38;;
25932;SDS011;13731;51.166;4.474;2023-02-22T05:55:57;132.50;;;122.43;;
25932;SDS011;13731;51.166;4.474;2023-02-22T05:58:23;122.00;;;112.97;;
25932;SDS011;13731;51.166;4.474;2023-02-22T06:00:49;122.47;;;113.72;;
25932;SDS011;13731;51.166;4.474;2023-02-22T06:03:15;126.78;;;117.53;;
25932;SDS011;13731;51.166;4.474;2023-02-22T06:05:41;123.68;;;115.18;;
25932;SDS011;13731;51.166;4.474;2023-02-22T06:08:07;124.22;;;115.18;;
25932;SDS011;13731;51.166;4.474;2023-02-22T06:10:33;132.75;;;122.82;;
25932;SDS011;13731;51.166;4.474;2023-02-22T06:13:00;123.93;;;114.72;;
25932;SDS011;13731;51.166;4.474;2023-02-22T06:15:26;123.18;;;113.75;;
25932;SDS011;13731;51.166;4.474;2023-02-22T06:17:53;112.55;;;103.75;;
25932;SDS011;13731;51.166;4.474;2023-02-22T06:20:21;125.55;;;116.25;;
25932;SDS011;13731;51.166;4.474;2023-02-22T06:22:48;107.03;;;98.78;;
25932;SDS011;13731;51.166;4.474;2023-02-22T06:25:16;102.43;;;94.65;;
25932;SDS011;13731;51.166;4.474;2023-02-22T06:27:44;102.90;;;95.03;;
25932;SDS011;13731;51.166;4.474;2023-02-22T06:30:10;106.25;;;98.47;;
25932;SDS011;13731;51.166;4.474;2023-02-22T06:32:37;99.38;;;91.70;;
25932;SDS011;13731;51.166;4.474;2023-02-22T06:35:03;100.82;;;92.70;;
25932;SDS011;13731;51.166;4.474;2023-02-22T06:37:29;102.38;;;94.55;;
25932;SDS011;13731;51.166;4.474;2023-02-22T06:39:55;100.60;;;92.55;;
25932;SDS011;13731;51.166;4.474;2023-02-22T06:42:21;97.38;;;89.65;;
25932;SDS011;13731;51.166;4.474;2023-02-22T06:44:48;105.03;;;96.90;;
25932;SDS011;13731;51.166;4.474;2023-02-22T06:47:14;99.95;;;91.97;;
25932;SDS011;13731;51.166;4.474;2023-02-22T06:49:40;96.80;;;88.88;;
25932;SDS011;13731;51.166;4.474;2023-02-22T06:52:07;106.78;;;98.20;;
25932;SDS011;13731;51.166;4.474;2023-02-22T06:54:34;110.45;;;102.03;;
25932;SDS011;13731;51.166;4.474;2023-02-22T06:57:01;100.85;;;92.70;;
25932;SDS011;13731;51.166;4.474;2023-02-22T06:59:27;106.10;;;97.93;;
25932;SDS011;13731;51.166;4.474;2023-02-22T07:01:53;113.10;;;104.40;;
25932;SDS011;13731;51.166;4.474;2023-02-22T07:04:19;104.00;;;95.82;;
25932;SDS011;13731;51.166;4.474;2023-02-22T07:06:46;96.85;;;89.50;;
25932;SDS011;13731;51.166;4.474;2023-02-22T07:09:13;98.35;;;90.60;;
25932;SDS011;13731;51.166;4.474;2023-02-22T07:11:40;100.88;;;93.20;;
25932;SDS011;13731;51.166;4.474;2023-02-22T07:14:06;95.20;;;87.57;;
25932;SDS011;13731;51.166;4.474;2023-02-22T07:16:32;97.68;;;90.20;;
25932;SDS011;13731;51.166;4.474;2023-02-22T07:18:58;98.30;;;91.10;;
25932;SDS011;13731;51.166;4.474;2023-02-22T07:21:26;99.28;;;91.72;;
25932;SDS011;13731;51.166;4.474;2023-02-22T07:23:53;103.32;;;95.50;;
25932;SDS011;13731;51.166;4.474;2023-02-22T07:26:21;102.88;;;95.22;;
25932;SDS011;13731;51.166;4.474;2023-02-22T07:28:49;107.00;;;98.70;;
25932;SDS011;13731;51.166;4.474;2023-02-22T07:31:16;102.05;;;94.75;;
25932;SDS011;13731;51.166;4.474;2023-02-22T07:33:42;112.22;;;103.90;;
25932;SDS011;13731;51.166;4.474;2023-02-22T07:36:10;112.43;;;104.35;;
25932;SDS011;13731;51.166;4.474;2023-02-22T07:38:37;113.78;;;106.15;;
25932;SDS011;13731;51.166;4.474;2023-02-22T07:41:03;107.53;;;100.22;;
25932;SDS011;13731;51.166;4.474;2023-02-22T07:43:30;116.32;;;108.82;;
25932;SDS011;13731;51.166;4.474;2023-02-22T07:45:58;113.38;;;105.63;;
25932;SDS011;13731;51.166;4.474;2023-02-22T07:48:27;114.95;;;107.40;;
25932;SDS011;13731;51.166;4.474;2023-02-22T07:50:55;115.82;;;108.40;;
25932;SDS011;13731;51.166;4.474;2023-02-22T07:53:23;118.15;;;109.93;;
25932;SDS011;13731;51.166;4.474;2023-02-22T07:55:57;118.00;;;110.50;;
25932;SDS011;13731;51.166;4.474;2023-02-22T07:58:25;113.05;;;105.75;;
25932;SDS011;13731;51.166;4.474;2023-02-22T08:00:53;118.40;;;110.93;;
25932;SDS011;13731;51.166;4.474;2023-02-22T08:03:21;118.55;;;111.00;;
25932;SDS011;13731;51.166;4.474;2023-02-22T08:05:52;104.35;;;97.55;;
25932;SDS011;13731;51.166;4.474;2023-02-22T08:08:19;103.78;;;96.97;;
25932;SDS011;13731;51.166;4.474;2023-02-22T08:10:46;100.50;;;93.82;;
25932;SDS011;13731;51.166;4.474;2023-02-22T08:13:13;92.50;;;86.07;;
25932;SDS011;13731;51.166;4.474;2023-02-22T08:15:40;99.35;;;92.97;;
25932;SDS011;13731;51.166;4.474;2023-02-22T08:18:08;99.93;;;93.57;;
25932;SDS011;13731;51.166;4.474;2023-02-22T08:20:36;94.13;;;88.10;;
25932;SDS011;13731;51.166;4.474;2023-02-22T08:23:03;104.57;;;97.80;;
25932;SDS011;13731;51.166;4.474;2023-02-22T08:25:30;88.75;;;82.93;;
25932;SDS011;13731;51.166;4.474;2023-02-22T08:27:58;87.15;;;81.53;;
25932;SDS011;13731;51.166;4.474;2023-02-22T08:30:26;91.05;;;84.95;;
25932;SDS011;13731;51.166;4.474;2023-02-22T08:32:53;82.32;;;76.78;;
25932;SDS011;13731;51.166;4.474;2023-02-22T08:35:20;77.45;;;72.22;;
25932;SDS011;13731;51.166;4.474;2023-02-22T08:37:51;72.65;;;67.65;;
25932;SDS011;13731;51.166;4.474;2023-02-22T08:40:23;83.18;;;77.55;;
25932;SDS011;13731;51.166;4.474;2023-02-22T08:42:52;65.00;;;60.35;;
25932;SDS011;13731;51.166;4.474;2023-02-22T08:45:18;69.30;;;64.40;;
25932;SDS011;13731;51.166;4.474;2023-02-22T08:47:44;72.82;;;67.53;;
25932;SDS011;13731;51.166;4.474;2023-02-22T08:50:15;64.95;;;60.55;;
25932;SDS011;13731;51.166;4.474;2023-02-22T08:52:43;71.28;;;66.53;;
25932;SDS011;13731;51.166;4.474;2023-02-22T08:55:09;71.05;;;66.40;;
25932;SDS011;13731;51.166;4.474;2023-02-22T08:57:35;76.13;;;70.30;;
25932;SDS011;13731;51.166;4.474;2023-02-22T09:00:02;67.15;;;62.33;;
25932;SDS011;13731;51.166;4.474;2023-02-22T09:02:29;66.25;;;61.80;;
25932;SDS011;13731;51.166;4.474;2023-02-22T09:04:55;69.20;;;64.60;;
25932;SDS011;13731;51.166;4.474;2023-02-22T09:07:21;68.47;;;63.97;;
25932;SDS011;13731;51.166;4.474;2023-02-22T09:09:47;72.85;;;67.90;;
25932;SDS011;13731;51.166;4.474;2023-02-22T09:12:13;72.10;;;67.43;;
25932;SDS011;13731;51.166;4.474;2023-02-22T09:14:38;65.57;;;61.45;;
25932;SDS011;13731;51.166;4.474;2023-02-22T09:17:04;59.30;;;55.28;;
25932;SDS011;13731;51.166;4.474;2023-02-22T09:19:30;61.97;;;57.80;;
25932;SDS011;13731;51.166;4.474;2023-02-22T09:21:57;61.03;;;57.00;;
25932;SDS011;13731;51.166;4.474;2023-02-22T09:24:26;56.05;;;52.17;;
25932;SDS011;13731;51.166;4.474;2023-02-22T09:26:52;63.40;;;58.92;;
25932;SDS011;13731;51.166;4.474;2023-02-22T09:29:22;57.83;;;53.85;;
25932;SDS011;13731;51.166;4.474;2023-02-22T09:31:50;55.83;;;51.75;;
25932;SDS011;13731;51.166;4.474;2023-02-22T09:34:18;52.13;;;48.38;;
25932;SDS011;13731;51.166;4.474;2023-02-22T09:36:46;51.42;;;47.05;;
25932;SDS011;13731;51.166;4.474;2023-02-22T09:39:16;55.90;;;51.40;;
25932;SDS011;13731;51.166;4.474;2023-02-22T09:56:59;73.65;;;68.45;;
25932;SDS011;13731;51.166;4.474;2023-02-22T09:59:33;79.25;;;73.90;;
25932;SDS011;13731;51.166;4.474;2023-02-22T10:02:50;78.70;;;73.27;;
25932;SDS011;13731;51.166;4.474;2023-02-22T10:05:09;70.47;;;65.55;;
25932;SDS011;13731;51.166;4.474;2023-02-22T10:07:45;72.47;;;67.32;;
25932;SDS011;13731;51.166;4.474;2023-02-22T10:10:17;70.00;;;65.13;;
25932;SDS011;13731;51.166;4.474;2023-02-22T10:21:11;70.72;;;65.88;;
25932;SDS011;13731;51.166;4.474;2023-02-22T10:26:41;68.35;;;63.55;;
25932;SDS011;13731;51.166;4.474;2023-02-22T10:29:15;69.10;;;64.35;;
25932;SDS011;13731;51.166;4.474;2023-02-22T10:31:58;67.47;;;62.83;;
25932;SDS011;13731;51.166;4.474;2023-02-22T10:34:29;66.65;;;61.85;;
25932;SDS011;13731;51.166;4.474;2023-02-22T10:40:22;59.63;;;55.35;;
25932;SDS011;13731;51.166;4.474;2023-02-22T10:43:05;53.25;;;49.30;;
25932;SDS011;13731;51.166;4.474;2023-02-22T10:45:33;55.40;;;51.33;;
25932;SDS011;13731;51.166;4.474;2023-02-22T10:48:05;60.47;;;56.13;;
25932;SDS011;13731;51.166;4.474;2023-02-22T10:50:36;52.78;;;48.75;;
25932;SDS011;13731;51.166;4.474;2023-02-22T10:53:05;54.88;;;50.63;;
25932;SDS011;13731;51.166;4.474;2023-02-22T10:55:32;66.28;;;61.58;;
25932;SDS011;13731;51.166;4.474;2023-02-22T10:58:03;64.85;;;60.35;;
25932;SDS011;13731;51.166;4.474;2023-02-22T11:00:38;57.45;;;53.25;;
25932;SDS011;13731;51.166;4.474;2023-02-22T11:03:05;50.45;;;46.40;;
25932;SDS011;13731;51.166;4.474;2023-02-22T11:05:43;50.35;;;46.30;;
25932;SDS011;13731;51.166;4.474;2023-02-22T11:08:13;52.80;;;48.90;;
25932;SDS011;13731;51.166;4.474;2023-02-22T11:10:50;57.45;;;53.42;;
25932;SDS011;13731;51.166;4.474;2023-02-22T11:13:36;65.95;;;61.33;;
25932;SDS011;13731;51.166;4.474;2023-02-22T11:18:49;54.58;;;50.20;;
25932;SDS011;13731;51.166;4.474;2023-02-22T11:21:23;53.78;;;49.63;;
25932;SDS011;13731;51.166;4.474;2023-02-22T11:23:50;54.58;;;49.80;;
25932;SDS011;13731;51.166;4.474;2023-02-22T11:26:35;58.75;;;54.30;;
25932;SDS011;13731;51.166;4.474;2023-02-22T11:29:17;55.42;;;50.83;;
25932;SDS011;13731;51.166;4.474;2023-02-22T11:31:56;51.63;;;47.80;;
25932;SDS011;13731;51.166;4.474;2023-02-22T11:34:29;53.07;;;48.87;;
25932;SDS011;13731;51.166;4.474;2023-02-22T11:37:17;55.78;;;51.22;;
25932;SDS011;13731;51.166;4.474;2023-02-22T11:40:03;58.90;;;54.20;;
25932;SDS011;13731;51.166;4.474;2023-02-22T11:42:36;55.97;;;51.65;;
25932;SDS011;13731;51.166;4.474;2023-02-22T11:45:14;59.30;;;54.83;;
25932;SDS011;13731;51.166;4.474;2023-02-22T11:58:47;66.20;;;61.28;;
25932;SDS011;13731;51.166;4.474;2023-02-22T12:06:50;71.80;;;66.13;;
25932;SDS011;13731;51.166;4.474;2023-02-22T12:12:11;83.35;;;77.18;;
25932;SDS011;13731;51.166;4.474;2023-02-22T12:21:05;78.18;;;71.45;;
25932;SDS011;13731;51.166;4.474;2023-02-22T12:26:38;92.15;;;85.38;;
25932;SDS011;13731;51.166;4.474;2023-02-22T12:31:42;109.43;;;101.80;;
25932;SDS011;13731;51.166;4.474;2023-02-22T12:34:16;111.00;;;102.90;;
25932;SDS011;13731;51.166;4.474;2023-02-22T12:37:21;110.40;;;103.07;;
25932;SDS011;13731;51.166;4.474;2023-02-22T12:42:28;114.50;;;106.38;;
25932;SDS011;13731;51.166;4.474;2023-02-22T12:45:03;114.65;;;106.85;;
25932;SDS011;13731;51.166;4.474;2023-02-22T12:48:18;112.00;;;104.38;;
25932;SDS011;13731;51.166;4.474;2023-02-22T12:50:31;118.10;;;110.53;;
25932;SDS011;13731;51.166;4.474;2023-02-22T13:01:13;102.10;;;94.80;;
25932;SDS011;13731;51.166;4.474;2023-02-22T13:03:44;101.28;;;94.07;;
25932;SDS011;13731;51.166;4.474;2023-02-22T13:09:04;95.60;;;88.38;;
25932;SDS011;13731;51.166;4.474;2023-02-22T13:22:44;92.00;;;84.88;;
25932;SDS011;13731;51.166;4.474;2023-02-22T13:31:29;94.88;;;87.57;;
25932;SDS011;13731;51.166;4.474;2023-02-22T13:36:31;106.35;;;98.70;;
25932;SDS011;13731;51.166;4.474;2023-02-22T13:52:38;105.03;;;97.60;;
25932;SDS011;13731;51.166;4.474;2023-02-22T13:55:14;104.88;;;96.78;;
25932;SDS011;13731;51.166;4.474;2023-02-22T13:57:46;97.03;;;89.72;;
25932;SDS011;13731;51.166;4.474;2023-02-22T14:08:51;101.50;;;93.53;;
25932;SDS011;13731;51.166;4.474;2023-02-22T14:10:54;104.53;;;96.20;;
25932;SDS011;13731;51.166;4.474;2023-02-22T14:13:22;102.90;;;94.97;;
25932;SDS011;13731;51.166;4.474;2023-02-22T14:18:36;103.30;;;95.05;;
25932;SDS011;13731;51.166;4.474;2023-02-22T14:21:11;99.53;;;91.28;;
25932;SDS011;13731;51.166;4.474;2023-02-22T14:23:46;99.28;;;90.95;;
25932;SDS011;13731;51.166;4.474;2023-02-22T14:28:57;111.53;;;102.43;;
25932;SDS011;13731;51.166;4.474;2023-02-22T14:31:30;103.75;;;95.45;;
25932;SDS011;13731;51.166;4.474;2023-02-22T14:36:32;106.78;;;98.45;;
25932;SDS011;13731;51.166;4.474;2023-02-22T14:39:05;102.60;;;94.47;;
25932;SDS011;13731;51.166;4.474;2023-02-22T14:41:50;98.72;;;90.47;;
25932;SDS011;13731;51.166;4.474;2023-02-22T14:44:25;104.63;;;96.32;;
25932;SDS011;13731;51.166;4.474;2023-02-22T14:46:57;100.47;;;92.20;;
25932;SDS011;13731;51.166;4.474;2023-02-22T14:49:29;103.28;;;94.90;;
25932;SDS011;13731;51.166;4.474;2023-02-22T14:52:01;100.57;;;92.07;;
25932;SDS011;13731;51.166;4.474;2023-02-22T14:54:38;100.68;;;92.35;;
25932;SDS011;13731;51.166;4.474;2023-02-22T14:57:20;98.65;;;90.05;;
25932;SDS011;13731;51.166;4.474;2023-02-22T15:02:17;97.10;;;88.35;;
25932;SDS011;13731;51.166;4.474;2023-02-22T15:04:51;95.18;;;86.32;;
25932;SDS011;13731;51.166;4.474;2023-02-22T15:07:20;100.10;;;91.00;;
25932;SDS011;13731;51.166;4.474;2023-02-22T15:10:04;93.05;;;84.25;;
25932;SDS011;13731;51.166;4.474;2023-02-22T15:12:52;95.88;;;86.78;;
25932;SDS011;13731;51.166;4.474;2023-02-22T15:15:34;93.75;;;85.20;;
25932;SDS011;13731;51.166;4.474;2023-02-22T15:18:08;97.07;;;87.88;;
25932;SDS011;13731;51.166;4.474;2023-02-22T15:20:41;99.28;;;89.93;;
25932;SDS011;13731;51.166;4.474;2023-02-22T15:23:07;99.45;;;90.00;;
25932;SDS011;13731;51.166;4.474;2023-02-22T15:25:34;101.55;;;91.90;;
25932;SDS011;13731;51.166;4.474;2023-02-22T15:28:03;108.00;;;98.30;;
25932;SDS011;13731;51.166;4.474;2023-02-22T15:30:33;106.65;;;96.57;;
25932;SDS011;13731;51.166;4.474;2023-02-22T15:33:18;106.15;;;96.20;;
25932;SDS011;13731;51.166;4.474;2023-02-22T15:35:53;110.20;;;99.55;;
25932;SDS011;13731;51.166;4.474;2023-02-22T15:38:25;98.90;;;89.18;;
25932;SDS011;13731;51.166;4.474;2023-02-22T15:40:59;99.50;;;90.28;;
25932;SDS011;13731;51.166;4.474;2023-02-22T15:43:27;100.00;;;90.53;;
25932;SDS011;13731;51.166;4.474;2023-02-22T15:45:53;107.05;;;97.03;;
25932;SDS011;13731;51.166;4.474;2023-02-22T15:48:20;103.82;;;93.70;;
25932;SDS011;13731;51.166;4.474;2023-02-22T15:53:36;104.80;;;95.40;;
25932;SDS011;13731;51.166;4.474;2023-02-22T15:56:05;99.25;;;90.07;;
25932;SDS011;13731;51.166;4.474;2023-02-22T15:58:34;100.93;;;91.15;;
25932;SDS011;13731;51.166;4.474;2023-02-22T16:03:39;96.47;;;86.82;;
25932;SDS011;13731;51.166;4.474;2023-02-22T16:06:11;96.20;;;86.75;;
25932;SDS011;13731;51.166;4.474;2023-02-22T16:08:58;99.05;;;89.45;;
25932;SDS011;13731;51.166;4.474;2023-02-22T16:11:32;99.70;;;90.28;;
25932;SDS011;13731;51.166;4.474;2023-02-22T16:14:38;103.90;;;94.00;;
25932;SDS011;13731;51.166;4.474;2023-02-22T16:17:10;104.55;;;94.35;;
25932;SDS011;13731;51.166;4.474;2023-02-22T16:19:52;108.63;;;98.47;;
25932;SDS011;13731;51.166;4.474;2023-02-22T16:27:42;89.63;;;80.50;;
25932;SDS011;13731;51.166;4.474;2023-02-22T16:33:04;106.35;;;96.53;;
25932;SDS011;13731;51.166;4.474;2023-02-22T16:35:41;99.68;;;89.95;;
25932;SDS011;13731;51.166;4.474;2023-02-22T16:38:16;106.13;;;96.60;;
25932;SDS011;13731;51.166;4.474;2023-02-22T16:40:47;106.35;;;96.82;;
25932;SDS011;13731;51.166;4.474;2023-02-22T16:43:20;102.40;;;92.78;;
25932;SDS011;13731;51.166;4.474;2023-02-22T16:45:53;111.15;;;100.35;;
25932;SDS011;13731;51.166;4.474;2023-02-22T16:48:20;102.88;;;93.30;;
25932;SDS011;13731;51.166;4.474;2023-02-22T16:50:48;107.13;;;95.90;;
25932;SDS011;13731;51.166;4.474;2023-02-22T16:53:16;102.65;;;92.70;;
25932;SDS011;13731;51.166;4.474;2023-02-22T16:55:44;102.25;;;92.47;;
25932;SDS011;13731;51.166;4.474;2023-02-22T16:58:12;106.72;;;96.22;;
25932;SDS011;13731;51.166;4.474;2023-02-22T17:00:39;103.25;;;92.32;;
25932;SDS011;13731;51.166;4.474;2023-02-22T17:03:08;106.75;;;96.15;;
25932;SDS011;13731;51.166;4.474;2023-02-22T17:05:38;108.85;;;98.25;;
25932;SDS011;13731;51.166;4.474;2023-02-22T17:08:05;105.03;;;94.57;;
25932;SDS011;13731;51.166;4.474;2023-02-22T17:10:31;109.80;;;98.28;;
25932;SDS011;13731;51.166;4.474;2023-02-22T17:12:58;105.32;;;94.63;;
25932;SDS011;13731;51.166;4.474;2023-02-22T17:17:53;107.53;;;95.93;;
25932;SDS011;13731;51.166;4.474;2023-02-22T17:20:20;106.03;;;95.22;;
25932;SDS011;13731;51.166;4.474;2023-02-22T17:23:00;105.35;;;94.20;;
25932;SDS011;13731;51.166;4.474;2023-02-22T17:28:00;102.60;;;91.95;;
25932;SDS011;13731;51.166;4.474;2023-02-22T17:30:26;103.28;;;92.32;;
25932;SDS011;13731;51.166;4.474;2023-02-22T17:32:52;102.00;;;91.35;;
25932;SDS011;13731;51.166;4.474;2023-02-22T17:35:27;115.78;;;104.00;;
25932;SDS011;13731;51.166;4.474;2023-02-22T17:37:58;99.03;;;89.05;;
25932;SDS011;13731;51.166;4.474;2023-02-22T17:40:25;101.32;;;90.28;;